sensor_id;sensor_type;location;lat;lon;timestamp;pressure;altitude;pressure_sealevel;temperature;humidity
21504;BME280;10913;51.992;9.228;2023-03-14T00:00:52;97813.59;;;12.34;91.52
21504;BME280;10913;51.992;9.228;2023-03-14T00:03:18;97799.44;;;12.35;91.18
21504;BME280;10913;51.992;9.228;2023-03-14T00:05:43;97805.66;;;12.34;91.11
21504;BME280;10913;51.992;9.228;2023-03-14T00:08:09;97813.44;;;12.37;91.08
21504;BME280;10913;51.992;9.228;2023-03-14T00:10:36;97810.88;;;12.35;91.40
21504;BME280;10913;51.992;9.228;2023-03-14T00:13:01;97805.66;;;12.34;91.03
21504;BME280;10913;51.992;9.228;2023-03-14T00:15:27;97803.69;;;12.37;91.09
21504;BME280;10913;51.992;9.228;2023-03-14T00:17:52;97815.03;;;12.39;90.92
21504;BME280;10913;51.992;9.228;2023-03-14T00:20:17;97825.81;;;12.36;91.16
21504;BME280;10913;51.992;9.228;2023-03-14T00:22:43;97834.78;;;12.34;91.59
21504;BME280;10913;51.992;9.228;2023-03-14T00:25:10;97850.66;;;12.34;91.49
21504;BME280;10913;51.992;9.228;2023-03-14T00:27:35;97837.59;;;12.31;91.81
21504;BME280;10913;51.992;9.228;2023-03-14T00:30:02;97849.25;;;12.27;91.87
21504;BME280;10913;51.992;9.228;2023-03-14T00:32:27;97858.69;;;12.32;90.96
21504;BME280;10913;51.992;9.228;2023-03-14T00:34:53;97845.28;;;12.35;90.30
21504;BME280;10913;51.992;9.228;2023-03-14T00:37:18;97841.78;;;12.35;90.48
21504;BME280;10913;51.992;9.228;2023-03-14T00:39:43;97856.03;;;12.32;90.68
21504;BME280;10913;51.992;9.228;2023-03-14T00:42:09;97855.81;;;12.37;89.77
21504;BME280;10913;51.992;9.228;2023-03-14T00:44:34;97849.56;;;12.38;89.17
21504;BME280;10913;51.992;9.228;2023-03-14T00:47:00;97845.88;;;12.40;89.39
21504;BME280;10913;51.992;9.228;2023-03-14T00:49:25;97829.13;;;12.40;89.64
21504;BME280;10913;51.992;9.228;2023-03-14T00:51:50;97829.13;;;12.40;89.63
21504;BME280;10913;51.992;9.228;2023-03-14T00:54:17;97813.25;;;12.40;89.35
21504;BME280;10913;51.992;9.228;2023-03-14T00:56:42;97810.78;;;12.37;89.39
21504;BME280;10913;51.992;9.228;2023-03-14T00:59:08;97785.25;;;12.36;89.60
21504;BME280;10913;51.992;9.228;2023-03-14T01:01:33;97785.41;;;12.33;89.30
21504;BME280;10913;51.992;9.228;2023-03-14T01:03:58;97783.69;;;12.32;89.57
21504;BME280;10913;51.992;9.228;2023-03-14T01:06:27;97781.84;;;12.34;89.37
21504;BME280;10913;51.992;9.228;2023-03-14T01:08:53;97789.00;;;12.32;89.60
21504;BME280;10913;51.992;9.228;2023-03-14T01:11:22;97799.75;;;12.29;89.72
21504;BME280;10913;51.992;9.228;2023-03-14T01:13:48;97801.78;;;12.24;90.14
21504;BME280;10913;51.992;9.228;2023-03-14T01:16:14;97807.41;;;12.18;90.40
21504;BME280;10913;51.992;9.228;2023-03-14T01:18:41;97804.94;;;12.15;90.30
21504;BME280;10913;51.992;9.228;2023-03-14T01:21:29;97829.84;;;12.11;90.59
21504;BME280;10913;51.992;9.228;2023-03-14T01:23:56;97839.56;;;12.10;90.56
21504;BME280;10913;51.992;9.228;2023-03-14T01:26:24;97830.78;;;12.10;91.21
21504;BME280;10913;51.992;9.228;2023-03-14T01:28:51;97825.56;;;12.08;91.60
21504;BME280;10913;51.992;9.228;2023-03-14T01:31:17;97834.50;;;12.05;91.69
21504;BME280;10913;51.992;9.228;2023-03-14T01:33:43;97836.38;;;12.03;92.08
21504;BME280;10913;51.992;9.228;2023-03-14T01:36:09;97829.22;;;12.05;91.97
21504;BME280;10913;51.992;9.228;2023-03-14T01:38:36;97800.09;;;12.05;92.14
21504;BME280;10913;51.992;9.228;2023-03-14T01:41:03;97795.59;;;12.07;92.07
21504;BME280;10913;51.992;9.228;2023-03-14T01:43:29;97769.44;;;12.01;92.46
21504;BME280;10913;51.992;9.228;2023-03-14T01:48:25;97752.78;;;11.99;92.98
21504;BME280;10913;51.992;9.228;2023-03-14T01:50:52;97768.09;;;11.94;93.26
21504;BME280;10913;51.992;9.228;2023-03-14T01:53:18;97771.81;;;11.90;93.47
21504;BME280;10913;51.992;9.228;2023-03-14T01:55:50;97783.66;;;11.83;93.61
21504;BME280;10913;51.992;9.228;2023-03-14T01:58:16;97780.16;;;11.83;93.41
21504;BME280;10913;51.992;9.228;2023-03-14T02:00:42;97772.28;;;11.81;93.78
21504;BME280;10913;51.992;9.228;2023-03-14T02:03:15;97779.63;;;11.76;93.52
21504;BME280;10913;51.992;9.228;2023-03-14T02:05:42;97788.63;;;11.72;93.80
21504;BME280;10913;51.992;9.228;2023-03-14T02:08:10;97784.25;;;11.71;93.73
21504;BME280;10913;51.992;9.228;2023-03-14T02:10:45;97793.06;;;11.71;93.68
21504;BME280;10913;51.992;9.228;2023-03-14T02:13:12;97802.00;;;11.69;93.89
21504;BME280;10913;51.992;9.228;2023-03-14T02:15:39;97785.28;;;11.68;93.29
21504;BME280;10913;51.992;9.228;2023-03-14T02:18:05;97770.25;;;11.69;93.38
21504;BME280;10913;51.992;9.228;2023-03-14T02:20:38;97768.31;;;11.72;93.35
21504;BME280;10913;51.992;9.228;2023-03-14T02:23:09;97770.09;;;11.72;92.80
21504;BME280;10913;51.992;9.228;2023-03-14T02:25:58;97782.28;;;11.76;92.87
21504;BME280;10913;51.992;9.228;2023-03-14T02:28:26;97774.16;;;11.79;92.53
21504;BME280;10913;51.992;9.228;2023-03-14T02:30:51;97779.38;;;11.81;92.57
21504;BME280;10913;51.992;9.228;2023-03-14T02:33:19;97763.50;;;11.81;92.43
21504;BME280;10913;51.992;9.228;2023-03-14T02:35:53;97763.41;;;11.82;92.14
21504;BME280;10913;51.992;9.228;2023-03-14T02:38:26;97759.16;;;11.80;92.48
21504;BME280;10913;51.992;9.228;2023-03-14T02:40:55;97756.41;;;11.81;92.11
21504;BME280;10913;51.992;9.228;2023-03-14T02:43:20;97760.19;;;11.77;92.20
21504;BME280;10913;51.992;9.228;2023-03-14T02:45:47;97756.59;;;11.78;92.07
21504;BME280;10913;51.992;9.228;2023-03-14T02:48:19;97761.03;;;11.78;92.31
21504;BME280;10913;51.992;9.228;2023-03-14T02:50:47;97761.13;;;11.76;92.58
21504;BME280;10913;51.992;9.228;2023-03-14T02:53:19;97763.75;;;11.76;92.21
21504;BME280;10913;51.992;9.228;2023-03-14T02:55:47;97753.69;;;11.83;92.07
21504;BME280;10913;51.992;9.228;2023-03-14T02:58:13;97754.63;;;11.82;92.11
21504;BME280;10913;51.992;9.228;2023-03-14T03:00:38;97746.88;;;11.79;92.72
21504;BME280;10913;51.992;9.228;2023-03-14T03:03:04;97741.66;;;11.77;92.94
21504;BME280;10913;51.992;9.228;2023-03-14T03:05:31;97746.97;;;11.77;92.85
21504;BME280;10913;51.992;9.228;2023-03-14T03:07:56;97733.09;;;11.72;93.01
21504;BME280;10913;51.992;9.228;2023-03-14T03:10:22;97738.22;;;11.75;93.15
21504;BME280;10913;51.992;9.228;2023-03-14T03:12:47;97746.31;;;11.72;93.08
21504;BME280;10913;51.992;9.228;2023-03-14T03:15:12;97763.88;;;11.73;94.16
21504;BME280;10913;51.992;9.228;2023-03-14T03:17:38;97781.00;;;11.66;96.24
21504;BME280;10913;51.992;9.228;2023-03-14T03:20:03;97797.09;;;11.61;97.88
21504;BME280;10913;51.992;9.228;2023-03-14T03:22:30;97801.69;;;11.58;98.87
21504;BME280;10913;51.992;9.228;2023-03-14T03:24:55;97800.44;;;11.48;100.00
21504;BME280;10913;51.992;9.228;2023-03-14T03:27:21;97802.44;;;11.43;100.00
21504;BME280;10913;51.992;9.228;2023-03-14T03:29:46;97804.66;;;11.34;100.00
21504;BME280;10913;51.992;9.228;2023-03-14T03:32:12;97794.50;;;11.25;99.88
21504;BME280;10913;51.992;9.228;2023-03-14T03:34:38;97788.28;;;11.09;100.00
21504;BME280;10913;51.992;9.228;2023-03-14T03:37:03;97784.63;;;10.94;100.00
21504;BME280;10913;51.992;9.228;2023-03-14T03:39:28;97794.88;;;10.82;100.00
21504;BME280;10913;51.992;9.228;2023-03-14T03:41:54;97777.22;;;10.65;100.00
21504;BME280;10913;51.992;9.228;2023-03-14T03:44:19;97765.53;;;10.52;100.00
21504;BME280;10913;51.992;9.228;2023-03-14T03:46:44;97775.50;;;10.45;100.00
21504;BME280;10913;51.992;9.228;2023-03-14T03:49:10;97780.78;;;10.45;100.00
21504;BME280;10913;51.992;9.228;2023-03-14T03:51:36;97783.66;;;10.41;100.00
21504;BME280;10913;51.992;9.228;2023-03-14T03:54:01;97778.81;;;10.31;100.00
21504;BME280;10913;51.992;9.228;2023-03-14T03:56:26;97786.06;;;10.26;100.00
21504;BME280;10913;51.992;9.228;2023-03-14T03:58:52;97794.34;;;10.19;100.00
21504;BME280;10913;51.992;9.228;2023-03-14T04:01:17;97782.19;;;10.15;100.00
21504;BME280;10913;51.992;9.228;2023-03-14T04:03:43;97790.09;;;10.15;100.00
21504;BME280;10913;51.992;9.228;2023-03-14T04:06:10;97794.59;;;10.13;100.00
21504;BME280;10913;51.992;9.228;2023-03-14T04:08:36;97797.34;;;10.10;100.00
21504;BME280;10913;51.992;9.228;2023-03-14T04:11:03;97787.00;;;10.05;100.00
21504;BME280;10913;51.992;9.228;2023-03-14T04:13:28;97790.56;;;10.04;100.00
21504;BME280;10913;51.992;9.228;2023-03-14T04:15:54;97790.00;;;9.97;100.00
21504;BME280;10913;51.992;9.228;2023-03-14T04:18:21;97792.91;;;9.91;100.00
21504;BME280;10913;51.992;9.228;2023-03-14T04:20:57;97790.41;;;9.88;100.00
21504;BME280;10913;51.992;9.228;2023-03-14T04:23:23;97789.41;;;9.91;100.00
21504;BME280;10913;51.992;9.228;2023-03-14T04:25:50;97792.06;;;9.91;100.00
21504;BME280;10913;51.992;9.228;2023-03-14T04:28:16;97778.00;;;9.90;100.00
21504;BME280;10913;51.992;9.228;2023-03-14T04:30:41;97779.72;;;9.91;100.00
21504;BME280;10913;51.992;9.228;2023-03-14T04:33:07;97777.09;;;9.91;100.00
21504;BME280;10913;51.992;9.228;2023-03-14T04:35:33;97778.75;;;9.94;100.00
21504;BME280;10913;51.992;9.228;2023-03-14T04:37:58;97770.69;;;9.97;100.00
21504;BME280;10913;51.992;9.228;2023-03-14T04:40:24;97769.59;;;10.01;100.00
21504;BME280;10913;51.992;9.228;2023-03-14T04:42:49;97774.03;;;10.00;100.00
21504;BME280;10913;51.992;9.228;2023-03-14T04:45:15;97765.19;;;10.01;100.00
21504;BME280;10913;51.992;9.228;2023-03-14T04:47:40;97763.63;;;9.97;100.00
21504;BME280;10913;51.992;9.228;2023-03-14T04:50:06;97764.50;;;9.98;100.00
21504;BME280;10913;51.992;9.228;2023-03-14T04:52:31;97739.75;;;10.00;100.00
21504;BME280;10913;51.992;9.228;2023-03-14T04:54:56;97737.09;;;10.00;100.00
21504;BME280;10913;51.992;9.228;2023-03-14T04:57:22;97723.16;;;9.98;100.00
21504;BME280;10913;51.992;9.228;2023-03-14T04:59:47;97714.47;;;9.96;100.00
21504;BME280;10913;51.992;9.228;2023-03-14T05:02:12;97702.19;;;9.95;100.00
21504;BME280;10913;51.992;9.228;2023-03-14T05:04:38;97708.47;;;9.93;100.00
21504;BME280;10913;51.992;9.228;2023-03-14T05:07:03;97718.09;;;9.94;100.00
21504;BME280;10913;51.992;9.228;2023-03-14T05:09:28;97721.72;;;9.91;100.00
21504;BME280;10913;51.992;9.228;2023-03-14T05:11:54;97716.72;;;9.85;100.00
21504;BME280;10913;51.992;9.228;2023-03-14T05:14:19;97701.03;;;9.82;100.00
21504;BME280;10913;51.992;9.228;2023-03-14T05:16:44;97718.63;;;9.82;100.00
21504;BME280;10913;51.992;9.228;2023-03-14T05:19:10;97694.97;;;9.80;100.00
21504;BME280;10913;51.992;9.228;2023-03-14T05:21:36;97696.06;;;9.76;100.00
21504;BME280;10913;51.992;9.228;2023-03-14T05:24:01;97694.41;;;9.74;100.00
21504;BME280;10913;51.992;9.228;2023-03-14T05:26:27;97692.75;;;9.71;100.00
21504;BME280;10913;51.992;9.228;2023-03-14T05:28:52;97699.75;;;9.72;100.00
21504;BME280;10913;51.992;9.228;2023-03-14T05:31:17;97698.81;;;9.73;100.00
21504;BME280;10913;51.992;9.228;2023-03-14T05:33:43;97686.38;;;9.77;100.00
21504;BME280;10913;51.992;9.228;2023-03-14T05:36:08;97694.34;;;9.75;100.00
21504;BME280;10913;51.992;9.228;2023-03-14T05:38:34;97696.19;;;9.73;100.00
21504;BME280;10913;51.992;9.228;2023-03-14T05:40:59;97702.88;;;9.80;100.00
21504;BME280;10913;51.992;9.228;2023-03-14T05:43:24;97695.69;;;9.84;100.00
21504;BME280;10913;51.992;9.228;2023-03-14T05:45:50;97692.06;;;9.86;100.00
21504;BME280;10913;51.992;9.228;2023-03-14T05:48:15;97688.34;;;9.90;100.00
21504;BME280;10913;51.992;9.228;2023-03-14T05:50:42;97698.91;;;9.90;100.00
21504;BME280;10913;51.992;9.228;2023-03-14T05:53:07;97706.81;;;9.90;100.00
21504;BME280;10913;51.992;9.228;2023-03-14T05:55:32;97702.34;;;9.92;100.00
21504;BME280;10913;51.992;9.228;2023-03-14T05:57:58;97696.13;;;9.93;100.00
21504;BME280;10913;51.992;9.228;2023-03-14T06:00:23;97703.06;;;9.96;100.00
21504;BME280;10913;51.992;9.228;2023-03-14T06:02:48;97703.06;;;9.96;100.00
21504;BME280;10913;51.992;9.228;2023-03-14T06:05:14;97705.75;;;9.94;100.00
21504;BME280;10913;51.992;9.228;2023-03-14T06:07:39;97713.59;;;9.96;100.00
21504;BME280;10913;51.992;9.228;2023-03-14T06:10:05;97711.88;;;9.95;100.00
21504;BME280;10913;51.992;9.228;2023-03-14T06:12:30;97721.56;;;9.94;100.00
21504;BME280;10913;51.992;9.228;2023-03-14T06:14:56;97726.06;;;9.92;100.00
21504;BME280;10913;51.992;9.228;2023-03-14T06:17:21;97726.13;;;9.91;100.00
21504;BME280;10913;51.992;9.228;2023-03-14T06:19:46;97727.00;;;9.91;100.00
21504;BME280;10913;51.992;9.228;2023-03-14T06:22:12;97709.53;;;9.89;100.00
21504;BME280;10913;51.992;9.228;2023-03-14T06:24:37;97712.28;;;9.86;100.00
21504;BME280;10913;51.992;9.228;2023-03-14T06:27:03;97718.56;;;9.83;100.00
21504;BME280;10913;51.992;9.228;2023-03-14T06:29:29;97716.97;;;9.79;100.00
21504;BME280;10913;51.992;9.228;2023-03-14T06:31:55;97718.97;;;9.74;100.00
21504;BME280;10913;51.992;9.228;2023-03-14T06:34:20;97726.97;;;9.73;100.00
21504;BME280;10913;51.992;9.228;2023-03-14T06:36:46;97719.13;;;9.71;100.00
21504;BME280;10913;51.992;9.228;2023-03-14T06:39:11;97715.56;;;9.72;100.00
21504;BME280;10913;51.992;9.228;2023-03-14T06:41:37;97721.88;;;9.68;100.00
21504;BME280;10913;51.992;9.228;2023-03-14T06:44:02;97714.91;;;9.67;100.00
21504;BME280;10913;51.992;9.228;2023-03-14T06:46:27;97719.13;;;9.71;100.00
21504;BME280;10913;51.992;9.228;2023-03-14T06:48:53;97715.56;;;9.72;100.00
21504;BME280;10913;51.992;9.228;2023-03-14T06:51:18;97709.22;;;9.76;100.00
21504;BME280;10913;51.992;9.228;2023-03-14T06:53:44;97709.91;;;9.80;100.00
21504;BME280;10913;51.992;9.228;2023-03-14T06:56:09;97706.44;;;9.79;100.00
21504;BME280;10913;51.992;9.228;2023-03-14T06:58:35;97701.03;;;9.82;100.00
21504;BME280;10913;51.992;9.228;2023-03-14T07:01:00;97701.88;;;9.83;100.00
21504;BME280;10913;51.992;9.228;2023-03-14T07:03:25;97705.38;;;9.83;100.00
21504;BME280;10913;51.992;9.228;2023-03-14T07:05:51;97704.44;;;9.84;100.00
21504;BME280;10913;51.992;9.228;2023-03-14T07:08:16;97697.31;;;9.86;100.00
21504;BME280;10913;51.992;9.228;2023-03-14T07:10:42;97695.34;;;9.91;100.00
21504;BME280;10913;51.992;9.228;2023-03-14T07:13:07;97681.09;;;9.95;100.00
21504;BME280;10913;51.992;9.228;2023-03-14T07:15:33;97688.03;;;9.98;100.00
21504;BME280;10913;51.992;9.228;2023-03-14T07:17:58;97682.81;;;9.96;100.00
21504;BME280;10913;51.992;9.228;2023-03-14T07:20:23;97685.59;;;9.93;100.00
21504;BME280;10913;51.992;9.228;2023-03-14T07:22:49;97692.72;;;9.91;100.00
21504;BME280;10913;51.992;9.228;2023-03-14T07:25:15;97693.69;;;9.89;100.00
21504;BME280;10913;51.992;9.228;2023-03-14T07:27:43;97691.78;;;9.92;100.00
21504;BME280;10913;51.992;9.228;2023-03-14T07:30:10;97689.09;;;9.94;100.00
21504;BME280;10913;51.992;9.228;2023-03-14T07:32:35;97691.06;;;9.89;100.00
21504;BME280;10913;51.992;9.228;2023-03-14T07:35:01;97689.28;;;9.89;100.00
21504;BME280;10913;51.992;9.228;2023-03-14T07:37:26;97697.84;;;9.94;100.00
21504;BME280;10913;51.992;9.228;2023-03-14T07:39:51;97709.00;;;9.99;100.00
21504;BME280;10913;51.992;9.228;2023-03-14T07:42:17;97708.66;;;10.07;100.00
21504;BME280;10913;51.992;9.228;2023-03-14T07:44:43;97701.47;;;10.11;100.00
21504;BME280;10913;51.992;9.228;2023-03-14T07:47:08;97706.47;;;10.17;100.00
21504;BME280;10913;51.992;9.228;2023-03-14T07:49:33;97701.91;;;10.20;100.00
21504;BME280;10913;51.992;9.228;2023-03-14T07:51:59;97693.78;;;10.25;100.00
21504;BME280;10913;51.992;9.228;2023-03-14T07:54:24;97697.16;;;10.28;100.00
21504;BME280;10913;51.992;9.228;2023-03-14T07:56:51;97701.56;;;10.28;100.00
21504;BME280;10913;51.992;9.228;2023-03-14T07:59:17;97698.34;;;10.21;100.00
21504;BME280;10913;51.992;9.228;2023-03-14T08:01:42;97696.66;;;10.20;100.00
21504;BME280;10913;51.992;9.228;2023-03-14T08:04:08;97700.22;;;10.19;100.00
21504;BME280;10913;51.992;9.228;2023-03-14T08:06:35;97701.06;;;10.20;100.00
21504;BME280;10913;51.992;9.228;2023-03-14T08:09:00;97705.34;;;10.22;100.00
21504;BME280;10913;51.992;9.228;2023-03-14T08:11:26;97731.03;;;10.19;100.00
21504;BME280;10913;51.992;9.228;2023-03-14T08:13:51;97716.97;;;10.18;100.00
21504;BME280;10913;51.992;9.228;2023-03-14T08:16:17;97709.03;;;10.18;100.00
21504;BME280;10913;51.992;9.228;2023-03-14T08:18:43;97709.84;;;10.20;100.00
21504;BME280;10913;51.992;9.228;2023-03-14T08:21:09;97705.41;;;10.21;100.00
21504;BME280;10913;51.992;9.228;2023-03-14T08:23:34;97705.13;;;10.27;100.00
21504;BME280;10913;51.992;9.228;2023-03-14T08:25:59;97702.22;;;10.33;100.00
21504;BME280;10913;51.992;9.228;2023-03-14T08:28:25;97707.44;;;10.34;100.00
21504;BME280;10913;51.992;9.228;2023-03-14T08:30:56;97695.03;;;10.37;100.00
21504;BME280;10913;51.992;9.228;2023-03-14T08:33:22;97700.13;;;10.40;100.00
21504;BME280;10913;51.992;9.228;2023-03-14T08:35:47;97700.84;;;10.43;100.00
21504;BME280;10913;51.992;9.228;2023-03-14T08:38:13;97710.31;;;10.47;100.00
21504;BME280;10913;51.992;9.228;2023-03-14T08:40:38;97700.41;;;10.52;100.00
21504;BME280;10913;51.992;9.228;2023-03-14T08:43:03;97702.75;;;10.58;100.00
21504;BME280;10913;51.992;9.228;2023-03-14T08:45:29;97714.72;;;10.65;100.00
21504;BME280;10913;51.992;9.228;2023-03-14T08:47:54;97709.28;;;10.68;100.00
21504;BME280;10913;51.992;9.228;2023-03-14T08:50:19;97704.50;;;10.77;100.00
21504;BME280;10913;51.992;9.228;2023-03-14T08:52:45;97706.97;;;10.80;100.00
21504;BME280;10913;51.992;9.228;2023-03-14T08:55:10;97706.97;;;10.80;100.00
21504;BME280;10913;51.992;9.228;2023-03-14T08:57:35;97708.31;;;10.88;100.00
21504;BME280;10913;51.992;9.228;2023-03-14T09:00:02;97703.34;;;10.99;100.00
21504;BME280;10913;51.992;9.228;2023-03-14T09:02:30;97701.88;;;11.11;100.00
21504;BME280;10913;51.992;9.228;2023-03-14T09:04:55;97705.16;;;11.16;100.00
21504;BME280;10913;51.992;9.228;2023-03-14T09:07:20;97713.88;;;11.18;100.00
21504;BME280;10913;51.992;9.228;2023-03-14T09:09:46;97708.88;;;11.29;100.00
21504;BME280;10913;51.992;9.228;2023-03-14T09:12:11;97702.13;;;11.74;100.00
21504;BME280;10913;51.992;9.228;2023-03-14T09:14:37;97700.19;;;12.11;100.00
21504;BME280;10913;51.992;9.228;2023-03-14T09:17:03;97702.41;;;12.50;100.00
21504;BME280;10913;51.992;9.228;2023-03-14T09:19:29;97704.13;;;12.51;100.00
21504;BME280;10913;51.992;9.228;2023-03-14T09:21:55;97708.88;;;12.44;100.00
21504;BME280;10913;51.992;9.228;2023-03-14T09:24:20;97698.66;;;12.38;100.00
21504;BME280;10913;51.992;9.228;2023-03-14T09:26:48;97709.50;;;12.18;100.00
21504;BME280;10913;51.992;9.228;2023-03-14T09:29:13;97718.25;;;12.02;100.00
21504;BME280;10913;51.992;9.228;2023-03-14T09:31:39;97713.22;;;11.98;100.00
21504;BME280;10913;51.992;9.228;2023-03-14T09:34:04;97708.88;;;12.13;100.00
21504;BME280;10913;51.992;9.228;2023-03-14T09:36:30;97702.56;;;12.31;100.00
21504;BME280;10913;51.992;9.228;2023-03-14T09:38:55;97703.25;;;12.66;100.00
21504;BME280;10913;51.992;9.228;2023-03-14T09:41:23;97704.72;;;13.17;100.00
21504;BME280;10913;51.992;9.228;2023-03-14T09:43:50;97706.97;;;13.53;95.08
21504;BME280;10913;51.992;9.228;2023-03-14T09:46:22;97712.78;;;13.74;94.70
21504;BME280;10913;51.992;9.228;2023-03-14T09:48:47;97686.72;;;13.66;93.35
21504;BME280;10913;51.992;9.228;2023-03-14T09:51:14;97708.97;;;13.50;93.45
21504;BME280;10913;51.992;9.228;2023-03-14T09:53:43;97701.16;;;13.32;94.09
21504;BME280;10913;51.992;9.228;2023-03-14T09:56:21;97703.50;;;13.23;95.42
21504;BME280;10913;51.992;9.228;2023-03-14T09:59:00;97703.75;;;13.48;94.54
21504;BME280;10913;51.992;9.228;2023-03-14T10:01:30;97697.16;;;13.98;93.38
21504;BME280;10913;51.992;9.228;2023-03-14T10:04:02;97696.00;;;14.16;89.83
21504;BME280;10913;51.992;9.228;2023-03-14T10:06:30;97687.19;;;14.16;89.62
21504;BME280;10913;51.992;9.228;2023-03-14T10:08:56;97691.44;;;14.04;90.49
21504;BME280;10913;51.992;9.228;2023-03-14T10:11:23;97697.91;;;13.86;91.00
21504;BME280;10913;51.992;9.228;2023-03-14T10:14:11;97704.53;;;13.64;90.75
21504;BME280;10913;51.992;9.228;2023-03-14T10:16:44;97706.31;;;13.50;92.25
21504;BME280;10913;51.992;9.228;2023-03-14T10:19:15;97703.06;;;13.44;93.39
21504;BME280;10913;51.992;9.228;2023-03-14T10:21:43;97693.91;;;13.50;93.40
21504;BME280;10913;51.992;9.228;2023-03-14T10:26:42;97696.81;;;13.45;93.90
21504;BME280;10913;51.992;9.228;2023-03-14T10:29:11;97705.63;;;13.46;94.12
21504;BME280;10913;51.992;9.228;2023-03-14T10:34:37;97707.34;;;13.47;93.87
21504;BME280;10913;51.992;9.228;2023-03-14T10:37:22;97708.88;;;13.51;94.80
21504;BME280;10913;51.992;9.228;2023-03-14T10:39:52;97702.81;;;13.63;93.95
21504;BME280;10913;51.992;9.228;2023-03-14T10:42:39;97702.13;;;13.60;94.49
21504;BME280;10913;51.992;9.228;2023-03-14T10:45:19;97704.06;;;13.58;95.06
21504;BME280;10913;51.992;9.228;2023-03-14T10:47:51;97714.19;;;13.51;96.03
21504;BME280;10913;51.992;9.228;2023-03-14T10:50:30;97719.16;;;13.41;96.15
21504;BME280;10913;51.992;9.228;2023-03-14T10:52:57;97717.50;;;13.25;97.92
21504;BME280;10913;51.992;9.228;2023-03-14T10:55:24;97711.19;;;13.27;98.68
21504;BME280;10913;51.992;9.228;2023-03-14T10:57:51;97716.75;;;13.23;98.61
21504;BME280;10913;51.992;9.228;2023-03-14T11:00:23;97713.63;;;13.16;98.00
21504;BME280;10913;51.992;9.228;2023-03-14T11:08:25;97711.63;;;13.64;97.35
21504;BME280;10913;51.992;9.228;2023-03-14T11:10:54;97719.41;;;13.67;96.45
21504;BME280;10913;51.992;9.228;2023-03-14T11:13:26;97721.88;;;13.70;96.83
21504;BME280;10913;51.992;9.228;2023-03-14T11:24:37;97818.38;;;12.43;100.00
21504;BME280;10913;51.992;9.228;2023-03-14T11:30:21;97878.91;;;11.64;98.48
21504;BME280;10913;51.992;9.228;2023-03-14T11:35:53;97907.59;;;10.81;97.25
21504;BME280;10913;51.992;9.228;2023-03-14T11:38:30;97919.50;;;10.52;97.13
21504;BME280;10913;51.992;9.228;2023-03-14T11:40:58;97924.91;;;10.29;97.36
21504;BME280;10913;51.992;9.228;2023-03-14T11:45:54;97949.81;;;10.01;99.25
21504;BME280;10913;51.992;9.228;2023-03-14T11:48:51;97974.44;;;9.80;97.77
21504;BME280;10913;51.992;9.228;2023-03-14T11:51:24;97984.56;;;9.69;97.94
21504;BME280;10913;51.992;9.228;2023-03-14T11:54:04;97993.09;;;9.54;98.43
21504;BME280;10913;51.992;9.228;2023-03-14T11:56:41;98027.09;;;9.38;97.65
21504;BME280;10913;51.992;9.228;2023-03-14T11:59:24;98042.53;;;9.24;99.37
21504;BME280;10913;51.992;9.228;2023-03-14T12:01:55;98062.31;;;9.12;98.34
21504;BME280;10913;51.992;9.228;2023-03-14T12:07:38;98097.75;;;8.79;97.67
21504;BME280;10913;51.992;9.228;2023-03-14T12:10:05;98110.31;;;8.71;95.36
21504;BME280;10913;51.992;9.228;2023-03-14T12:12:31;98126.84;;;8.49;97.47
21504;BME280;10913;51.992;9.228;2023-03-14T12:15:02;98137.66;;;8.40;96.76
21504;BME280;10913;51.992;9.228;2023-03-14T12:17:41;98166.91;;;8.29;98.37
21504;BME280;10913;51.992;9.228;2023-03-14T12:23:05;98191.19;;;7.80;95.80
21504;BME280;10913;51.992;9.228;2023-03-14T12:25:35;98206.56;;;7.65;95.08
21504;BME280;10913;51.992;9.228;2023-03-14T12:28:18;98207.69;;;7.56;96.01
21504;BME280;10913;51.992;9.228;2023-03-14T12:30:44;98206.31;;;7.43;96.60
21504;BME280;10913;51.992;9.228;2023-03-14T12:35:45;98235.72;;;7.23;95.03
21504;BME280;10913;51.992;9.228;2023-03-14T12:38:26;98254.13;;;7.23;96.41
21504;BME280;10913;51.992;9.228;2023-03-14T12:46:57;98313.00;;;7.14;98.67
21504;BME280;10913;51.992;9.228;2023-03-14T12:49:30;98317.38;;;7.14;98.00
21504;BME280;10913;51.992;9.228;2023-03-14T12:52:02;98331.34;;;7.16;98.39
21504;BME280;10913;51.992;9.228;2023-03-14T12:54:31;98327.84;;;7.15;98.30
21504;BME280;10913;51.992;9.228;2023-03-14T13:09:54;98363.22;;;7.36;97.84
21504;BME280;10913;51.992;9.228;2023-03-14T13:12:25;98367.88;;;7.23;95.22
21504;BME280;10913;51.992;9.228;2023-03-14T13:14:53;98376.56;;;7.27;96.02
21504;BME280;10913;51.992;9.228;2023-03-14T13:17:30;98386.13;;;7.30;96.37
21504;BME280;10913;51.992;9.228;2023-03-14T13:19:57;98380.06;;;7.28;96.37
21504;BME280;10913;51.992;9.228;2023-03-14T13:22:28;98395.63;;;7.35;95.10
21504;BME280;10913;51.992;9.228;2023-03-14T13:25:02;98399.16;;;7.34;95.75
21504;BME280;10913;51.992;9.228;2023-03-14T13:27:30;98405.31;;;7.33;95.08
21504;BME280;10913;51.992;9.228;2023-03-14T13:29:56;98406.19;;;7.34;95.21
21504;BME280;10913;51.992;9.228;2023-03-14T13:32:25;98412.19;;;7.39;96.39
21504;BME280;10913;51.992;9.228;2023-03-14T13:34:55;98414.72;;;7.42;94.97
21504;BME280;10913;51.992;9.228;2023-03-14T13:37:23;98415.63;;;7.41;94.92
21504;BME280;10913;51.992;9.228;2023-03-14T13:39:56;98424.31;;;7.43;95.58
21504;BME280;10913;51.992;9.228;2023-03-14T13:42:25;98432.94;;;7.49;96.48
21504;BME280;10913;51.992;9.228;2023-03-14T13:44:53;98446.13;;;7.46;94.84
21504;BME280;10913;51.992;9.228;2023-03-14T13:47:21;98450.44;;;7.49;95.06
21504;BME280;10913;51.992;9.228;2023-03-14T13:49:48;98465.53;;;7.41;94.40
21504;BME280;10913;51.992;9.228;2023-03-14T13:52:36;98484.03;;;7.36;95.12
21504;BME280;10913;51.992;9.228;2023-03-14T13:55:03;98483.44;;;7.23;95.55
21504;BME280;10913;51.992;9.228;2023-03-14T13:57:43;98492.34;;;7.18;96.53
21504;BME280;10913;51.992;9.228;2023-03-14T14:00:18;98512.44;;;7.19;97.25